createdAt,value
2023-12-22T12:01:56.794Z,74.25
2023-12-22T12:03:29.198Z,71.75
2023-12-22T12:05:01.840Z,74.50
2023-12-22T12:06:35.779Z,61.25
2023-12-22T12:08:08.552Z,63.50
2023-12-22T12:09:48.114Z,67.75
2023-12-22T12:11:20.584Z,63.80
2023-12-22T12:13:07.530Z,60.20
2023-12-22T12:14:42.607Z,67.75
2023-12-22T12:16:15.883Z,59.60
2023-12-22T12:17:48.390Z,63.00
2023-12-22T12:19:20.579Z,59.20
2023-12-22T12:20:52.780Z,54.00
2023-12-22T12:22:26.553Z,51.40
2023-12-22T12:23:58.659Z,52.40
2023-12-22T12:25:35.925Z,51.40
2023-12-22T12:27:09.220Z,40.60
2023-12-22T12:28:42.862Z,49.20
2023-12-22T12:30:15.472Z,48.20
2023-12-22T12:31:47.668Z,48.60
2023-12-22T12:33:20.039Z,50.00
2023-12-22T12:34:54.147Z,65.40
2023-12-22T12:36:26.506Z,61.80
2023-12-22T12:37:58.996Z,68.75
2023-12-22T12:39:32.715Z,60.20
2023-12-22T12:41:06.068Z,53.80
2023-12-22T12:42:39.409Z,53.20
2023-12-22T12:44:11.935Z,50.60
2023-12-22T12:45:44.637Z,50.80
2023-12-22T12:47:17.254Z,48.00
2023-12-22T12:48:49.939Z,47.80
2023-12-22T12:50:24.682Z,49.00
2023-12-22T12:51:56.745Z,54.60
2023-12-22T12:53:28.826Z,59.00
2023-12-22T12:55:02.266Z,58.60
2023-12-22T12:56:42.690Z,62.40
2023-12-22T12:58:14.841Z,65.20
2023-12-22T12:59:49.347Z,64.50
2023-12-22T13:01:26.400Z,66.25
2023-12-22T13:03:04.434Z,68.50
2023-12-22T13:04:39.433Z,72.75
2023-12-22T13:06:11.720Z,72.25
2023-12-22T13:07:43.765Z,73.50
2023-12-22T13:09:16.784Z,72.50
2023-12-22T13:10:49.066Z,72.75
2023-12-22T13:12:21.113Z,73.25
2023-12-22T13:14:13.840Z,77.75
2023-12-22T13:15:46.065Z,68.50
2023-12-22T13:17:18.178Z,71.75
2023-12-22T13:18:50.522Z,75.25
2023-12-22T13:20:22.614Z,75.00
2023-12-22T13:21:55.186Z,75.00
2023-12-22T13:23:27.255Z,69.75
2023-12-22T13:24:59.514Z,71.00
2023-12-22T13:26:31.495Z,76.00
2023-12-22T13:28:04.027Z,76.50
2023-12-22T13:29:45.053Z,78.75
2023-12-22T13:31:19.653Z,78.50
2023-12-22T13:32:55.786Z,78.50
2023-12-22T13:34:27.985Z,77.00
2023-12-22T13:36:00.093Z,81.00
2023-12-22T13:37:32.532Z,82.75
2023-12-22T13:39:08.112Z,89.75
2023-12-22T13:40:40.640Z,81.50
2023-12-22T13:42:18.005Z,81.75
2023-12-22T13:43:50.375Z,79.50
2023-12-22T13:45:22.414Z,77.75
2023-12-22T13:46:54.503Z,78.75
2023-12-22T13:48:26.698Z,80.00
2023-12-22T13:49:59.387Z,72.75
2023-12-22T13:51:49.169Z,76.25
2023-12-22T13:53:21.237Z,76.25
2023-12-22T13:54:54.774Z,73.75
2023-12-22T13:56:26.947Z,72.00
2023-12-22T13:58:01.302Z,75.75
2023-12-22T13:59:34.438Z,73.75
2023-12-22T14:01:15.032Z,74.75
2023-12-22T14:02:47.759Z,73.75
2023-12-22T14:04:19.830Z,80.00
2023-12-22T14:05:53.818Z,75.50
2023-12-22T14:07:26.177Z,71.75
2023-12-22T14:08:58.958Z,69.50
2023-12-22T14:10:31.082Z,69.25
2023-12-22T14:12:06.006Z,77.00
2023-12-22T14:13:42.742Z,76.75
2023-12-22T14:15:14.901Z,75.75
2023-12-22T14:16:46.997Z,75.50
2023-12-22T14:18:19.083Z,77.50
2023-12-22T14:19:51.380Z,74.25
2023-12-22T14:21:23.620Z,78.50
2023-12-22T14:22:55.590Z,75.50
2023-12-22T14:24:27.813Z,72.25
2023-12-22T14:26:00.025Z,77.25
2023-12-22T14:27:32.179Z,78.00
2023-12-22T14:29:04.253Z,74.00
2023-12-22T14:30:36.363Z,75.25
2023-12-22T14:32:10.018Z,72.25
2023-12-22T14:33:42.201Z,78.25
2023-12-22T14:35:14.371Z,73.00
2023-12-22T14:36:46.553Z,71.75
2023-12-22T14:38:18.808Z,73.00
2023-12-22T14:39:50.934Z,76.00
2023-12-22T14:41:23.172Z,75.50
2023-12-22T14:42:55.268Z,85.50
2023-12-22T14:44:27.332Z,85.75
2023-12-22T14:45:59.480Z,85.50
2023-12-22T14:47:32.020Z,81.50
2023-12-22T14:49:04.488Z,84.25
2023-12-22T14:50:36.613Z,82.33
2023-12-22T14:52:09.647Z,82.00
2023-12-22T14:53:41.900Z,82.25
2023-12-22T14:55:14.110Z,82.75
2023-12-22T14:56:46.104Z,81.50
2023-12-22T14:58:18.192Z,89.00
2023-12-22T14:59:50.257Z,84.00
2023-12-22T15:01:22.286Z,81.25
2023-12-22T15:02:54.568Z,87.00
2023-12-22T15:04:27.079Z,77.50
2023-12-22T15:05:59.432Z,83.00
2023-12-22T15:07:31.812Z,82.25
2023-12-22T15:09:04.020Z,97.80
2023-12-22T15:10:36.413Z,92.50
2023-12-22T15:12:08.543Z,81.25
2023-12-22T15:13:40.831Z,76.00
2023-12-22T15:15:12.901Z,78.50
2023-12-22T15:16:46.930Z,78.00
2023-12-22T15:18:18.970Z,78.25
2023-12-22T15:19:51.137Z,81.25
2023-12-22T15:21:23.766Z,75.50
2023-12-22T15:22:55.915Z,86.50
2023-12-22T15:24:30.413Z,82.75
2023-12-22T15:26:02.590Z,94.25
2023-12-22T15:27:34.697Z,78.00
2023-12-22T15:29:07.473Z,89.75
2023-12-22T15:30:39.554Z,78.25
2023-12-22T15:32:11.792Z,88.00
2023-12-22T15:33:44.205Z,86.75
2023-12-22T15:35:16.360Z,80.75
2023-12-22T15:36:48.658Z,80.75
2023-12-22T15:38:20.794Z,82.25
2023-12-22T15:39:52.911Z,84.00
2023-12-22T15:41:25.309Z,80.25
2023-12-22T15:42:57.447Z,73.25
2023-12-22T15:44:30.675Z,79.25
2023-12-22T15:46:07.319Z,83.50
2023-12-22T15:47:42.048Z,75.50
2023-12-22T15:49:14.339Z,75.00
2023-12-22T15:50:47.432Z,77.50
2023-12-22T15:52:19.564Z,75.00
2023-12-22T15:53:51.658Z,76.25
2023-12-22T15:55:23.676Z,98.50
2023-12-22T15:56:55.850Z,87.75
2023-12-22T15:58:27.952Z,81.50
2023-12-22T16:00:00.128Z,79.00
2023-12-22T16:01:32.142Z,79.25
2023-12-22T16:03:04.634Z,73.00
2023-12-22T16:04:36.677Z,73.25
2023-12-22T16:06:09.073Z,69.00
2023-12-22T16:07:42.246Z,65.25
2023-12-22T16:09:15.017Z,65.00
2023-12-22T16:10:48.626Z,60.75
2023-12-22T16:12:20.660Z,60.20
2023-12-22T16:13:54.515Z,56.80
2023-12-22T16:15:26.550Z,54.80
2023-12-22T16:16:58.744Z,51.80
2023-12-22T16:18:31.184Z,47.80
2023-12-22T16:20:03.347Z,49.60
2023-12-22T16:21:41.499Z,50.20
2023-12-22T16:23:13.636Z,44.60
2023-12-22T16:24:47.911Z,11.40
2023-12-22T16:26:21.512Z,21.40
2023-12-22T16:27:53.711Z,28.00
2023-12-22T16:29:25.825Z,22.80
2023-12-22T16:30:58.023Z,27.20
2023-12-22T16:32:30.015Z,29.20
2023-12-22T16:34:03.827Z,27.60
2023-12-22T16:35:36.022Z,25.60
2023-12-22T16:37:08.142Z,26.80
2023-12-22T16:38:40.330Z,25.00
2023-12-22T16:40:12.617Z,24.80
2023-12-22T16:41:44.680Z,22.40
2023-12-22T16:43:16.758Z,24.80
2023-12-22T16:44:49.080Z,28.40
2023-12-22T16:46:21.946Z,22.80
2023-12-22T16:47:54.531Z,24.60
2023-12-22T16:49:26.606Z,23.20
2023-12-22T16:51:02.483Z,18.20
2023-12-22T16:52:35.507Z,19.40
2023-12-22T16:54:07.764Z,22.00
2023-12-22T16:55:40.122Z,21.40
2023-12-22T16:57:12.120Z,22.60
2023-12-22T16:58:44.206Z,22.00
2023-12-22T17:00:16.572Z,21.60
2023-12-22T17:02:00.622Z,19.20
2023-12-22T17:03:39.460Z,27.20
2023-12-22T17:05:11.958Z,19.20
2023-12-22T17:06:49.624Z,18.00
2023-12-22T17:08:22.298Z,32.40
2023-12-22T17:09:54.516Z,26.00
2023-12-22T17:11:26.757Z,23.00
2023-12-22T17:12:58.924Z,22.60
2023-12-22T17:14:30.922Z,17.80
2023-12-22T17:16:02.942Z,21.80
2023-12-22T17:17:35.194Z,20.80
2023-12-22T17:19:07.394Z,20.80
2023-12-22T17:20:39.468Z,13.40
2023-12-22T17:22:11.468Z,10.20
2023-12-22T17:23:44.578Z,17.00
2023-12-22T17:25:19.718Z,44.60
2023-12-22T17:26:51.775Z,44.40
2023-12-22T17:28:23.853Z,37.40
2023-12-22T17:29:56.011Z,27.40
2023-12-22T17:31:28.594Z,22.00
2023-12-22T17:33:00.759Z,20.20
2023-12-22T17:34:32.846Z,16.00
2023-12-22T17:36:05.762Z,19.40
2023-12-22T17:37:38.124Z,17.20
2023-12-22T17:39:11.181Z,18.40
2023-12-22T17:40:43.262Z,18.80
2023-12-22T17:42:15.396Z,19.60
2023-12-22T17:43:47.447Z,15.00
2023-12-22T17:45:19.571Z,16.00
2023-12-22T17:46:51.674Z,34.40
2023-12-22T17:48:23.784Z,27.20
2023-12-22T17:49:56.089Z,25.60
2023-12-22T17:51:28.240Z,22.60
2023-12-22T17:53:00.488Z,23.00
2023-12-22T17:54:32.702Z,17.00
2023-12-22T17:56:04.924Z,21.20
2023-12-22T17:57:37.009Z,18.20
2023-12-22T17:59:09.118Z,14.00
2023-12-22T18:00:41.307Z,23.80
2023-12-22T18:02:16.911Z,36.80
2023-12-22T18:03:54.960Z,26.00
2023-12-22T18:05:28.202Z,21.00
2023-12-22T18:07:02.729Z,24.00
2023-12-22T18:08:34.807Z,21.60
2023-12-22T18:10:07.621Z,10.80
2023-12-22T18:11:42.510Z,21.60
2023-12-22T18:13:14.628Z,18.00
2023-12-22T18:14:46.995Z,14.60
2023-12-22T18:16:18.999Z,16.40
2023-12-22T18:17:51.252Z,17.40
2023-12-22T18:19:23.707Z,18.60
2023-12-22T18:20:55.792Z,13.40
2023-12-22T18:22:27.929Z,25.20
2023-12-22T18:23:59.958Z,22.80
2023-12-22T18:25:32.098Z,16.40
2023-12-22T18:27:04.427Z,12.00
2023-12-22T18:28:36.514Z,18.40
2023-12-22T18:30:09.013Z,4.60
2023-12-22T18:31:41.101Z,12.20
2023-12-22T18:33:13.353Z,14.00
2023-12-22T18:34:45.481Z,17.20
2023-12-22T18:36:17.521Z,11.00
2023-12-22T18:37:49.943Z,11.60
2023-12-22T18:39:22.288Z,12.80
2023-12-22T18:40:54.389Z,11.80
2023-12-22T18:42:26.475Z,12.40
2023-12-22T18:43:58.613Z,21.80
2023-12-22T18:45:30.689Z,25.80
2023-12-22T18:47:02.833Z,25.60
2023-12-22T18:48:35.999Z,17.00
2023-12-22T18:50:08.442Z,16.60
2023-12-22T18:51:41.664Z,14.20
2023-12-22T18:53:14.143Z,15.80
2023-12-22T18:54:46.232Z,14.60
2023-12-22T18:56:23.002Z,13.20
2023-12-22T18:57:55.056Z,13.60
2023-12-22T18:59:27.103Z,17.80
2023-12-22T19:00:59.203Z,13.80
2023-12-22T19:02:46.100Z,14.60
2023-12-22T19:04:25.585Z,10.80
2023-12-22T19:05:59.470Z,12.00
2023-12-22T19:07:31.724Z,23.60
2023-12-22T19:09:05.160Z,47.20
2023-12-22T19:10:37.259Z,32.60
2023-12-22T19:12:09.336Z,25.20
2023-12-22T19:13:41.721Z,28.40
2023-12-22T19:15:13.889Z,22.00
2023-12-22T19:16:46.211Z,17.20
2023-12-22T19:18:18.428Z,22.60
2023-12-22T19:19:50.829Z,11.60
2023-12-22T19:21:22.944Z,13.60
2023-12-22T19:22:55.183Z,25.20
2023-12-22T19:24:27.409Z,16.40
2023-12-22T19:25:59.497Z,14.60
2023-12-22T19:27:32.911Z,14.00
2023-12-22T19:29:05.020Z,0.60
2023-12-22T19:30:37.090Z,16.20
2023-12-22T19:32:09.283Z,16.40
2023-12-22T19:33:41.645Z,16.80
2023-12-22T19:35:14.106Z,17.20
2023-12-22T19:36:46.569Z,13.20
2023-12-22T19:38:21.670Z,26.20
2023-12-22T19:39:53.816Z,25.60
2023-12-22T19:41:27.349Z,17.80
2023-12-22T19:42:59.392Z,18.80
2023-12-22T19:44:31.409Z,23.80
2023-12-22T19:46:03.461Z,37.20
2023-12-22T19:47:35.730Z,40.60
2023-12-22T19:49:08.013Z,47.60
2023-12-22T19:50:40.480Z,48.20
2023-12-22T19:52:12.495Z,49.40
2023-12-22T19:53:44.568Z,56.20
2023-12-22T19:55:16.931Z,53.80
2023-12-22T19:56:49.204Z,59.20
2023-12-22T19:58:21.425Z,64.75
2023-12-22T19:59:53.476Z,67.00
2023-12-22T20:01:26.075Z,63.00
2023-12-22T20:02:58.132Z,58.50
2023-12-22T20:04:30.183Z,70.00
2023-12-22T20:06:04.141Z,66.50
2023-12-22T20:07:37.184Z,68.75
2023-12-22T20:09:09.464Z,66.25
2023-12-22T20:10:41.576Z,67.75
2023-12-22T20:12:13.642Z,74.25
2023-12-22T20:13:45.964Z,80.00
2023-12-22T20:15:17.946Z,77.25
2023-12-22T20:16:49.985Z,77.75
2023-12-22T20:18:22.141Z,82.25
2023-12-22T20:19:54.490Z,96.25
2023-12-22T20:21:26.638Z,97.50
2023-12-22T20:22:59.124Z,90.50
2023-12-22T20:24:31.693Z,79.25
2023-12-22T20:26:03.920Z,84.75
2023-12-22T20:27:35.999Z,87.25
2023-12-22T20:29:08.970Z,82.25
2023-12-22T20:30:41.077Z,88.75
2023-12-22T20:32:13.514Z,161.00
2023-12-22T20:33:45.804Z,204.75
2023-12-22T20:35:18.006Z,165.25
2023-12-22T20:36:50.346Z,153.75
2023-12-22T20:38:22.578Z,148.00
2023-12-22T20:39:54.677Z,134.50
2023-12-22T20:41:26.850Z,146.50
2023-12-22T20:42:58.995Z,151.25
2023-12-22T20:44:31.169Z,150.25
2023-12-22T20:46:03.477Z,143.00
2023-12-22T20:47:35.695Z,140.25
2023-12-22T20:49:07.954Z,152.00
2023-12-22T20:50:41.091Z,130.25
2023-12-22T20:52:13.149Z,141.75
2023-12-22T20:53:45.209Z,128.25
2023-12-22T20:55:17.348Z,130.00
2023-12-22T20:56:49.847Z,126.75
2023-12-22T20:58:22.572Z,123.25
2023-12-22T20:59:54.689Z,104.50
2023-12-22T21:01:27.760Z,122.75
2023-12-22T21:02:59.869Z,106.75
2023-12-22T21:04:32.454Z,117.40
2023-12-22T21:06:07.443Z,122.20
2023-12-22T21:07:40.864Z,118.00
2023-12-22T21:09:13.115Z,108.80
2023-12-22T21:10:46.405Z,114.20
2023-12-22T21:12:19.326Z,115.80
2023-12-22T21:13:52.331Z,112.60
2023-12-22T21:15:24.596Z,118.00
2023-12-22T21:16:56.759Z,126.00
2023-12-22T21:18:29.044Z,125.75
2023-12-22T21:20:01.338Z,122.25
2023-12-22T21:21:34.402Z,118.80
2023-12-22T21:23:14.930Z,129.75
2023-12-22T21:24:48.687Z,117.80
2023-12-22T21:26:22.529Z,174.75
2023-12-22T21:27:54.871Z,133.50
2023-12-22T21:29:26.964Z,129.00
2023-12-22T21:30:59.203Z,122.80
2023-12-22T21:32:31.637Z,110.00
2023-12-22T21:34:05.385Z,103.60
2023-12-22T21:35:37.959Z,109.40
2023-12-22T21:37:10.057Z,120.60
2023-12-22T21:38:42.306Z,114.20
2023-12-22T21:40:14.615Z,112.80
2023-12-22T21:41:49.887Z,114.00
2023-12-22T21:43:22.739Z,110.20
2023-12-22T21:44:54.861Z,124.80
2023-12-22T21:46:27.041Z,128.75
2023-12-22T21:47:59.229Z,109.40
2023-12-22T21:49:31.413Z,113.00
2023-12-22T21:51:05.636Z,80.25
2023-12-22T21:52:37.730Z,77.00
2023-12-22T21:54:11.816Z,77.25
2023-12-22T21:55:44.042Z,80.00
2023-12-22T21:57:16.117Z,78.75
2023-12-22T21:58:48.207Z,72.50
2023-12-22T22:00:20.313Z,75.75
2023-12-22T22:01:52.477Z,71.75
2023-12-22T22:03:26.515Z,73.25
2023-12-22T22:05:00.833Z,76.50
2023-12-22T22:06:32.908Z,74.50
2023-12-22T22:08:05.344Z,75.75
2023-12-22T22:09:37.480Z,72.25
2023-12-22T22:11:09.697Z,82.25
2023-12-22T22:12:46.046Z,80.50
2023-12-22T22:14:28.499Z,79.00
2023-12-22T22:16:02.218Z,78.75
2023-12-22T22:17:35.533Z,74.00
2023-12-22T22:19:08.216Z,77.75
2023-12-22T22:20:40.377Z,70.75
2023-12-22T22:22:12.429Z,69.00
2023-12-22T22:23:44.446Z,62.75
2023-12-22T22:25:16.583Z,60.00
2023-12-22T22:26:48.684Z,61.50
2023-12-22T22:28:20.800Z,67.00
2023-12-22T22:29:52.938Z,67.75
2023-12-22T22:31:24.978Z,67.00
2023-12-22T22:32:57.070Z,64.50
2023-12-22T22:34:29.137Z,62.20
2023-12-22T22:36:02.449Z,57.80
2023-12-22T22:37:34.550Z,61.60
2023-12-22T22:39:07.450Z,55.80
2023-12-22T22:40:39.638Z,52.60
2023-12-22T22:42:11.685Z,61.60
2023-12-22T22:43:43.771Z,58.20
2023-12-22T22:45:15.932Z,57.40
2023-12-22T22:46:47.996Z,55.40
2023-12-22T22:48:20.834Z,59.20
2023-12-22T22:49:52.943Z,53.00
2023-12-22T22:51:25.933Z,55.00
2023-12-22T22:52:58.102Z,50.40
2023-12-22T22:54:30.218Z,55.40
2023-12-22T22:56:02.836Z,54.80
2023-12-22T22:57:35.015Z,57.80
2023-12-22T22:59:07.186Z,63.00
2023-12-22T23:00:43.057Z,58.00
2023-12-22T23:02:15.412Z,66.50
2023-12-22T23:03:47.615Z,68.25
2023-12-22T23:05:19.716Z,72.75
2023-12-22T23:06:51.845Z,65.50
2023-12-22T23:08:24.027Z,73.00
2023-12-22T23:09:58.497Z,67.75
2023-12-22T23:11:30.938Z,74.00
2023-12-22T23:13:03.044Z,77.75
2023-12-22T23:14:35.148Z,73.00
2023-12-22T23:16:08.367Z,75.25
2023-12-22T23:17:40.483Z,73.00
2023-12-22T23:19:12.582Z,77.00
2023-12-22T23:20:44.654Z,73.00
2023-12-22T23:22:16.644Z,72.75
2023-12-22T23:24:09.014Z,72.00
2023-12-22T23:25:41.366Z,74.50
2023-12-22T23:27:13.702Z,70.25
2023-12-22T23:28:46.736Z,70.75
2023-12-22T23:30:19.027Z,71.25
2023-12-22T23:31:51.363Z,70.50
2023-12-22T23:33:23.521Z,67.50
2023-12-22T23:34:55.630Z,69.50
